createdAt,value
2022-09-26T00:01:12.197Z,19.48
2022-09-26T00:03:39.012Z,16.92
2022-09-26T00:06:09.035Z,17.58
2022-09-26T00:08:37.156Z,17.08
2022-09-26T00:11:06.009Z,17.77
2022-09-26T00:13:34.452Z,17.85
2022-09-26T00:16:01.124Z,20.27
2022-09-26T00:18:27.607Z,18.23
2022-09-26T00:20:54.159Z,18.20
2022-09-26T00:23:20.625Z,18.75
2022-09-26T00:25:51.625Z,18.35
2022-09-26T00:28:18.981Z,18.42
2022-09-26T00:30:45.543Z,19.13
2022-09-26T00:33:12.221Z,18.77
2022-09-26T00:35:39.311Z,16.08
2022-09-26T00:38:05.921Z,21.08
2022-09-26T00:40:35.503Z,18.45
2022-09-26T00:43:02.069Z,23.00
2022-09-26T00:45:30.921Z,21.52
2022-09-26T00:48:02.118Z,20.35
2022-09-26T00:50:39.303Z,18.85
2022-09-26T00:53:12.728Z,21.55
2022-09-26T00:55:45.141Z,23.15
2022-09-26T00:58:38.936Z,22.13
2022-09-26T01:01:06.813Z,21.98
2022-09-26T01:03:37.107Z,20.70
2022-09-26T01:06:04.033Z,21.38
2022-09-26T01:08:40.193Z,22.50
2022-09-26T01:11:11.596Z,20.23
2022-09-26T01:13:42.913Z,20.80
2022-09-26T01:16:09.593Z,21.23
2022-09-26T01:18:36.726Z,19.67
2022-09-26T01:21:18.357Z,21.75
2022-09-26T01:24:09.907Z,21.33
2022-09-26T01:26:55.129Z,22.67
2022-09-26T01:30:03.745Z,21.92
2022-09-26T01:32:54.031Z,20.50
2022-09-26T01:35:39.117Z,21.98
2022-09-26T01:38:24.588Z,21.63
2022-09-26T01:41:16.114Z,20.48
2022-09-26T01:44:25.199Z,21.00
2022-09-26T01:46:56.787Z,19.92
2022-09-26T01:49:45.449Z,20.40
2022-09-26T01:52:44.979Z,21.77
2022-09-26T01:55:16.505Z,20.05
2022-09-26T01:58:03.098Z,20.23
2022-09-26T02:00:30.424Z,20.77
2022-09-26T02:02:59.320Z,21.50
2022-09-26T02:05:33.203Z,19.88
2022-09-26T02:08:13.100Z,20.52
2022-09-26T02:10:47.453Z,21.63
2022-09-26T02:13:18.679Z,21.60
2022-09-26T02:15:51.070Z,22.33
2022-09-26T02:18:23.647Z,25.60
2022-09-26T02:20:57.907Z,22.30
2022-09-26T02:23:24.443Z,19.98
2022-09-26T02:25:54.002Z,23.70
2022-09-26T02:28:21.995Z,23.00
2022-09-26T02:30:50.639Z,24.95
2022-09-26T02:33:17.265Z,24.48
2022-09-26T02:35:56.392Z,21.92
2022-09-26T02:38:29.548Z,24.48
2022-09-26T02:41:13.247Z,24.30
2022-09-26T02:43:52.097Z,21.67
2022-09-26T02:46:40.786Z,22.30
2022-09-26T02:49:45.382Z,23.30
2022-09-26T02:52:51.184Z,20.88
2022-09-26T02:55:41.410Z,20.50
2022-09-26T02:58:35.959Z,23.10
2022-09-26T03:01:51.595Z,24.15
2022-09-26T03:04:24.252Z,22.80
2022-09-26T03:06:56.265Z,25.87
2022-09-26T03:09:25.578Z,24.30
2022-09-26T03:11:53.630Z,23.38
2022-09-26T03:14:21.220Z,23.38
2022-09-26T03:16:49.984Z,25.27
2022-09-26T03:19:47.191Z,21.63
2022-09-26T03:22:15.659Z,25.40
2022-09-26T03:24:42.642Z,25.77
2022-09-26T03:27:12.151Z,25.67
2022-09-26T03:29:39.154Z,24.60
2022-09-26T03:32:08.502Z,25.23
2022-09-26T03:34:39.707Z,22.95
2022-09-26T03:37:07.203Z,22.65
2022-09-26T03:39:34.159Z,22.23
2022-09-26T03:42:07.651Z,24.67
2022-09-26T03:44:34.186Z,22.30
2022-09-26T03:47:03.863Z,24.85
2022-09-26T03:49:31.325Z,25.27
2022-09-26T03:51:58.001Z,25.00
2022-09-26T03:54:24.813Z,24.25
2022-09-26T03:56:51.483Z,20.25
2022-09-26T03:59:18.021Z,22.20
2022-09-26T04:01:46.482Z,20.20
2022-09-26T04:04:15.229Z,19.20
2022-09-26T04:06:44.827Z,17.83
2022-09-26T04:09:16.612Z,18.33
2022-09-26T04:11:46.653Z,16.67
2022-09-26T04:14:13.393Z,18.30
2022-09-26T04:16:40.932Z,19.38
2022-09-26T04:19:28.329Z,18.08
2022-09-26T04:21:55.203Z,17.27
2022-09-26T04:24:21.787Z,19.23
2022-09-26T04:26:48.588Z,18.60
2022-09-26T04:29:15.825Z,16.10
2022-09-26T04:32:05.397Z,18.25
2022-09-26T04:34:42.954Z,18.15
2022-09-26T04:37:10.173Z,18.20
2022-09-26T04:39:36.983Z,18.30
2022-09-26T04:42:04.357Z,17.95
2022-09-26T04:44:30.829Z,15.57
2022-09-26T04:46:58.319Z,15.40
2022-09-26T04:49:39.379Z,15.20
2022-09-26T04:52:06.511Z,18.88
2022-09-26T04:54:33.038Z,15.40
2022-09-26T04:57:00.624Z,16.65
2022-09-26T04:59:27.115Z,14.95
2022-09-26T05:01:59.124Z,15.48
2022-09-26T05:04:34.953Z,18.10
2022-09-26T05:07:01.745Z,16.77
2022-09-26T05:09:35.541Z,17.15
2022-09-26T05:12:05.942Z,20.58
2022-09-26T05:14:35.347Z,19.60
2022-09-26T05:17:03.840Z,18.42
2022-09-26T05:19:30.455Z,18.98
2022-09-26T05:22:15.555Z,17.08
2022-09-26T05:25:00.832Z,18.20
2022-09-26T05:27:27.499Z,18.95
2022-09-26T05:29:55.538Z,22.65
2022-09-26T05:32:22.595Z,18.17
2022-09-26T05:34:51.043Z,17.67
2022-09-26T05:37:21.146Z,34.25
2022-09-26T05:40:06.973Z,28.38
2022-09-26T05:42:37.543Z,26.42
2022-09-26T05:45:04.831Z,25.38
2022-09-26T05:47:36.076Z,22.23
2022-09-26T05:50:09.771Z,21.67
2022-09-26T05:52:38.253Z,21.48
2022-09-26T05:55:05.907Z,22.50
2022-09-26T05:57:59.085Z,21.70
2022-09-26T06:00:36.551Z,19.35
2022-09-26T06:03:03.720Z,17.98
2022-09-26T06:05:46.991Z,20.02
2022-09-26T06:08:16.039Z,16.75
2022-09-26T06:10:45.517Z,23.00
2022-09-26T06:13:15.190Z,24.02
2022-09-26T06:15:46.745Z,24.45
2022-09-26T06:18:14.415Z,23.55
2022-09-26T06:20:41.039Z,18.42
2022-09-26T06:23:07.562Z,21.52
2022-09-26T06:25:35.126Z,17.88
2022-09-26T06:28:03.413Z,16.85
2022-09-26T06:30:30.960Z,22.33
2022-09-26T06:33:09.078Z,19.17
2022-09-26T06:36:06.467Z,19.60
2022-09-26T06:38:35.963Z,21.50
2022-09-26T06:41:05.297Z,17.48
2022-09-26T06:43:31.967Z,18.80
2022-09-26T06:46:17.036Z,16.35
2022-09-26T06:48:55.632Z,17.52
2022-09-26T06:51:40.862Z,14.45
2022-09-26T06:54:07.918Z,14.82
2022-09-26T06:56:34.399Z,15.73
2022-09-26T06:59:00.928Z,13.20
2022-09-26T07:01:33.199Z,13.38
2022-09-26T07:04:08.546Z,17.00
2022-09-26T07:06:38.231Z,13.27
2022-09-26T07:09:14.915Z,15.43
2022-09-26T07:12:13.736Z,13.30
2022-09-26T07:14:39.000Z,11.43
2022-09-26T07:17:15.952Z,12.48
2022-09-26T07:20:02.685Z,13.80
2022-09-26T07:22:52.229Z,10.15
2022-09-26T07:25:19.113Z,11.73
2022-09-26T07:27:49.618Z,10.98
2022-09-26T07:30:16.317Z,11.02
2022-09-26T07:33:03.028Z,10.52
2022-09-26T07:35:38.397Z,10.15
2022-09-26T07:38:05.660Z,11.07
2022-09-26T07:40:32.556Z,12.10
2022-09-26T07:43:19.254Z,11.23
2022-09-26T07:46:09.144Z,12.35
2022-09-26T07:48:54.869Z,11.63
2022-09-26T07:51:39.954Z,12.20
2022-09-26T07:54:10.861Z,10.73
2022-09-26T07:57:06.689Z,11.50
2022-09-26T07:59:50.430Z,13.05
2022-09-26T08:02:37.015Z,10.63
2022-09-26T08:05:05.895Z,10.30
2022-09-26T08:07:35.305Z,11.52
2022-09-26T08:10:18.958Z,10.57
2022-09-26T08:13:03.765Z,9.30
2022-09-26T08:15:36.344Z,12.00
2022-09-26T08:18:05.734Z,8.40
2022-09-26T08:20:33.960Z,8.57
2022-09-26T08:23:00.648Z,10.25
2022-09-26T08:25:27.879Z,7.40
2022-09-26T08:28:00.248Z,11.27
2022-09-26T08:30:29.789Z,7.53
2022-09-26T08:33:00.563Z,8.50
2022-09-26T08:35:27.364Z,6.90
2022-09-26T08:37:54.110Z,10.80
2022-09-26T08:40:50.192Z,8.82
2022-09-26T08:44:32.101Z,8.63
2022-09-26T08:47:34.802Z,6.95
2022-09-26T08:50:21.056Z,4.88
2022-09-26T08:52:58.233Z,7.75
2022-09-26T08:55:30.329Z,7.15
2022-09-26T08:58:04.058Z,5.75
2022-09-26T09:00:33.296Z,5.53
2022-09-26T09:03:31.650Z,6.85
2022-09-26T09:06:07.187Z,7.45
2022-09-26T09:08:43.478Z,6.47
2022-09-26T09:12:01.827Z,7.25
2022-09-26T09:14:39.557Z,5.70
2022-09-26T09:18:02.108Z,5.45
2022-09-26T09:20:56.387Z,6.70
2022-09-26T09:24:16.339Z,5.30
2022-09-26T09:29:50.599Z,5.15
2022-09-26T09:33:15.324Z,5.35
2022-09-26T09:35:56.160Z,5.90
2022-09-26T09:38:46.770Z,4.60
2022-09-26T09:41:47.155Z,5.88
2022-09-26T09:44:37.073Z,4.97
2022-09-26T09:47:12.692Z,5.05
2022-09-26T09:49:39.527Z,5.05
2022-09-26T09:52:38.259Z,5.95
2022-09-26T09:55:21.097Z,6.38
2022-09-26T09:58:26.018Z,4.75
2022-09-26T10:01:25.554Z,7.40
2022-09-26T10:04:06.484Z,4.80
2022-09-26T10:06:46.648Z,5.38
2022-09-26T10:09:39.353Z,5.30
2022-09-26T10:12:37.150Z,4.35
2022-09-26T10:15:56.160Z,6.30
2022-09-26T10:19:03.670Z,4.90
2022-09-26T10:21:34.241Z,5.25
2022-09-26T10:24:03.672Z,4.72
2022-09-26T10:26:45.205Z,4.68
2022-09-26T10:29:34.367Z,4.25
2022-09-26T10:32:02.603Z,4.20
2022-09-26T10:34:33.282Z,5.63
2022-09-26T10:37:36.141Z,5.07
2022-09-26T10:40:45.876Z,3.85
2022-09-26T10:43:21.307Z,4.32
2022-09-26T10:45:55.975Z,4.22
2022-09-26T10:48:49.419Z,3.63
2022-09-26T10:51:42.540Z,5.10
2022-09-26T10:54:16.319Z,4.05
2022-09-26T10:56:47.394Z,4.78
2022-09-26T10:59:18.298Z,4.03
2022-09-26T11:01:51.301Z,5.03
2022-09-26T11:04:41.771Z,4.00
2022-09-26T11:07:49.359Z,4.70
2022-09-26T11:10:49.294Z,3.90
2022-09-26T11:13:21.834Z,3.25
2022-09-26T11:16:01.196Z,3.63
2022-09-26T11:21:27.790Z,3.92
2022-09-26T11:23:58.220Z,2.50
2022-09-26T11:26:37.632Z,1.83
2022-09-26T11:29:24.936Z,3.85
2022-09-26T11:32:26.257Z,2.65
2022-09-26T11:35:02.480Z,3.85
2022-09-26T11:37:50.806Z,3.13
2022-09-26T11:40:24.878Z,3.80
2022-09-26T11:43:03.280Z,3.42
2022-09-26T11:45:47.609Z,4.50
2022-09-26T11:48:52.828Z,3.53
2022-09-26T11:51:57.436Z,2.90
2022-09-26T11:55:17.794Z,4.20
2022-09-26T11:57:53.805Z,4.63
2022-09-26T12:00:27.451Z,4.45
2022-09-26T12:03:05.739Z,5.40
2022-09-26T12:05:39.591Z,5.65
2022-09-26T12:08:32.584Z,2.90
2022-09-26T12:11:15.418Z,3.28
2022-09-26T12:14:17.450Z,2.73
2022-09-26T12:17:04.531Z,2.63
2022-09-26T12:19:36.371Z,3.05
2022-09-26T12:22:36.081Z,2.20
2022-09-26T12:25:22.144Z,2.90
2022-09-26T12:28:00.714Z,3.05
2022-09-26T12:30:33.622Z,4.18
2022-09-26T12:33:08.711Z,3.65
2022-09-26T12:35:52.613Z,2.67
2022-09-26T12:38:44.430Z,2.30
2022-09-26T12:41:25.212Z,2.40
2022-09-26T12:44:22.633Z,3.33
2022-09-26T12:46:58.666Z,2.97
2022-09-26T12:49:35.100Z,3.13
2022-09-26T12:52:27.760Z,4.97
2022-09-26T12:55:03.027Z,3.15
2022-09-26T12:58:09.381Z,5.95
2022-09-26T13:01:09.476Z,3.47
2022-09-26T13:03:53.887Z,3.60
2022-09-26T13:06:29.408Z,3.30
2022-09-26T13:09:53.027Z,3.53
2022-09-26T13:12:45.711Z,4.07
2022-09-26T13:15:35.459Z,3.03
2022-09-26T13:18:17.443Z,4.85
2022-09-26T13:20:49.296Z,4.80
2022-09-26T13:23:36.362Z,2.30
2022-09-26T13:26:09.736Z,4.00
2022-09-26T13:29:06.502Z,4.53
2022-09-26T13:31:41.000Z,3.40
2022-09-26T13:34:34.675Z,2.63
2022-09-26T13:37:04.313Z,3.85
2022-09-26T13:39:35.010Z,2.72
2022-09-26T13:42:26.177Z,3.60
2022-09-26T13:45:22.155Z,2.97
2022-09-26T13:48:12.942Z,3.83
2022-09-26T13:51:02.554Z,3.38
2022-09-26T13:53:50.089Z,4.20
2022-09-26T13:56:36.218Z,3.72
2022-09-26T13:59:26.067Z,4.13
2022-09-26T14:02:23.399Z,4.97
2022-09-26T14:05:18.914Z,3.63
2022-09-26T14:08:11.465Z,4.30
2022-09-26T14:10:40.685Z,4.10
2022-09-26T14:13:10.126Z,3.42
2022-09-26T14:15:48.737Z,3.70
2022-09-26T14:18:48.664Z,3.42
2022-09-26T14:21:33.517Z,3.58
2022-09-26T14:24:25.855Z,3.33
2022-09-26T14:27:10.402Z,3.00
2022-09-26T14:29:49.275Z,4.60
2022-09-26T14:32:23.372Z,2.90
2022-09-26T14:34:59.962Z,5.10
2022-09-26T14:37:40.065Z,2.85
2022-09-26T14:40:09.457Z,3.65
2022-09-26T14:42:49.944Z,4.35
2022-09-26T14:45:16.597Z,4.15
2022-09-26T14:47:50.227Z,3.58
2022-09-26T14:50:25.916Z,3.00
2022-09-26T14:52:55.058Z,3.95
2022-09-26T14:55:21.823Z,3.40
2022-09-26T14:57:48.652Z,3.45
2022-09-26T15:00:35.758Z,3.42
2022-09-26T15:03:07.602Z,4.25
2022-09-26T15:05:34.757Z,3.35
2022-09-26T15:08:01.575Z,4.97
2022-09-26T15:10:42.462Z,4.00
2022-09-26T15:13:20.241Z,3.25
2022-09-26T15:15:56.324Z,3.55
2022-09-26T15:18:39.419Z,3.28
2022-09-26T15:21:33.158Z,4.07
2022-09-26T15:24:02.707Z,3.53
2022-09-26T15:26:36.025Z,5.22
2022-09-26T15:29:06.217Z,3.78
2022-09-26T15:31:44.398Z,3.60
2022-09-26T15:34:16.445Z,3.35
2022-09-26T15:36:45.339Z,4.80
2022-09-26T15:39:30.130Z,3.08
2022-09-26T15:42:16.306Z,3.30
2022-09-26T15:44:48.541Z,3.50
2022-09-26T15:47:41.126Z,3.67
2022-09-26T15:50:17.370Z,5.15
2022-09-26T15:52:49.370Z,3.72
2022-09-26T15:55:19.658Z,4.75
2022-09-26T15:57:48.793Z,4.80
2022-09-26T16:00:16.144Z,3.00
2022-09-26T16:02:43.389Z,3.83
2022-09-26T16:05:13.033Z,3.97
2022-09-26T16:07:41.858Z,3.58
2022-09-26T16:10:21.397Z,4.80
2022-09-26T16:12:48.042Z,3.70
2022-09-26T16:15:18.575Z,4.25
2022-09-26T16:17:53.659Z,3.83
2022-09-26T16:20:20.872Z,3.55
2022-09-26T16:22:49.332Z,4.03
2022-09-26T16:25:15.777Z,5.45
2022-09-26T16:27:42.578Z,4.68
2022-09-26T16:30:21.750Z,4.70
2022-09-26T16:32:48.255Z,3.92
2022-09-26T16:35:23.847Z,3.40
2022-09-26T16:37:59.499Z,5.85
2022-09-26T16:40:34.618Z,3.83
2022-09-26T16:43:14.544Z,4.80
2022-09-26T16:45:51.778Z,5.03
2022-09-26T16:48:43.347Z,4.13
2022-09-26T16:51:16.568Z,5.20
2022-09-26T16:53:45.794Z,6.15
2022-09-26T16:56:15.777Z,4.32
2022-09-26T16:58:48.849Z,4.45
2022-09-26T17:01:34.815Z,3.58
2022-09-26T17:04:01.847Z,4.22
2022-09-26T17:06:28.383Z,8.32
2022-09-26T17:08:56.511Z,5.18
2022-09-26T17:11:23.768Z,5.55
2022-09-26T17:13:50.338Z,6.28
2022-09-26T17:16:17.127Z,5.53
2022-09-26T17:18:44.862Z,4.32
2022-09-26T17:21:14.718Z,6.22
2022-09-26T17:23:42.459Z,4.53
2022-09-26T17:26:18.524Z,4.28
2022-09-26T17:28:45.571Z,5.50
2022-09-26T17:31:19.190Z,5.82
2022-09-26T17:33:47.325Z,4.43
2022-09-26T17:36:26.071Z,7.93
2022-09-26T17:38:53.427Z,7.20
2022-09-26T17:41:20.103Z,8.77
2022-09-26T17:43:46.592Z,7.97
2022-09-26T17:46:15.756Z,8.38
2022-09-26T17:48:43.999Z,8.90
2022-09-26T17:51:14.380Z,11.45
2022-09-26T17:53:50.632Z,11.85
2022-09-26T17:56:18.973Z,11.55
2022-09-26T17:58:47.019Z,13.43
2022-09-26T18:01:30.179Z,11.73
2022-09-26T18:04:00.931Z,10.40
2022-09-26T18:06:29.929Z,11.45
2022-09-26T18:08:59.614Z,12.40
2022-09-26T18:11:27.073Z,8.27
2022-09-26T18:13:55.250Z,9.05
2022-09-26T18:16:23.272Z,8.27
2022-09-26T18:18:50.409Z,9.23
2022-09-26T18:21:18.810Z,9.38
2022-09-26T18:23:56.718Z,9.38
2022-09-26T18:26:30.876Z,8.63
2022-09-26T18:28:59.107Z,9.32
2022-09-26T18:31:30.993Z,7.75
2022-09-26T18:34:01.016Z,8.80
2022-09-26T18:36:29.666Z,7.75
2022-09-26T18:38:56.142Z,7.47
2022-09-26T18:41:25.057Z,8.02
2022-09-26T18:43:54.020Z,6.80
2022-09-26T18:46:22.846Z,9.10
2022-09-26T18:48:50.542Z,7.40
2022-09-26T18:51:17.988Z,6.40
2022-09-26T18:53:44.757Z,7.75
2022-09-26T18:56:29.957Z,6.63
2022-09-26T18:58:57.490Z,9.90
2022-09-26T19:01:30.900Z,6.57
2022-09-26T19:04:00.466Z,8.07
2022-09-26T19:06:36.797Z,10.25
2022-09-26T19:09:11.479Z,8.07
2022-09-26T19:11:38.065Z,7.18
2022-09-26T19:14:19.956Z,10.27
2022-09-26T19:16:48.318Z,8.32
2022-09-26T19:19:15.559Z,7.68
2022-09-26T19:21:59.916Z,9.82
2022-09-26T19:24:48.273Z,8.15
2022-09-26T19:27:18.516Z,7.82
2022-09-26T19:29:53.943Z,9.93
2022-09-26T19:32:32.120Z,11.38
2022-09-26T19:35:20.466Z,8.27
2022-09-26T19:37:47.097Z,9.27
2022-09-26T19:40:15.520Z,8.00
2022-09-26T19:42:42.470Z,9.93
2022-09-26T19:45:13.520Z,7.97
2022-09-26T19:47:44.933Z,7.05
2022-09-26T19:50:20.451Z,8.13
2022-09-26T19:52:48.319Z,12.60
2022-09-26T19:55:17.874Z,11.48
2022-09-26T19:57:44.410Z,10.10
2022-09-26T20:00:12.244Z,11.05
2022-09-26T20:02:39.256Z,9.85
2022-09-26T20:05:17.247Z,7.57
2022-09-26T20:07:44.524Z,7.35
2022-09-26T20:10:20.028Z,7.43
2022-09-26T20:12:48.397Z,8.48
2022-09-26T20:15:16.683Z,7.50
2022-09-26T20:17:45.495Z,8.98
2022-09-26T20:20:22.102Z,6.03
2022-09-26T20:22:51.072Z,6.15
2022-09-26T20:25:26.603Z,7.50
2022-09-26T20:27:54.305Z,7.70
2022-09-26T20:30:39.807Z,6.72
2022-09-26T20:33:06.805Z,10.80
2022-09-26T20:35:40.033Z,7.85
2022-09-26T20:38:12.848Z,10.50
2022-09-26T20:40:41.470Z,7.55
2022-09-26T20:43:14.371Z,9.45
2022-09-26T20:45:44.041Z,9.10
2022-09-26T20:48:20.598Z,11.15
2022-09-26T20:50:48.432Z,8.27
2022-09-26T20:53:23.775Z,7.15
2022-09-26T20:55:52.210Z,7.88
2022-09-26T20:58:19.115Z,6.85
2022-09-26T21:00:46.108Z,9.13
2022-09-26T21:03:15.894Z,8.07
2022-09-26T21:05:43.333Z,10.27
2022-09-26T21:08:25.138Z,9.88
2022-09-26T21:10:51.773Z,10.73
2022-09-26T21:13:18.219Z,12.07
2022-09-26T21:15:44.837Z,12.10
2022-09-26T21:18:24.513Z,10.63
2022-09-26T21:20:52.393Z,10.20
2022-09-26T21:23:55.218Z,11.75
2022-09-26T21:26:27.758Z,8.18
2022-09-26T21:28:55.411Z,7.70
2022-09-26T21:31:28.705Z,6.35
2022-09-26T21:33:58.107Z,6.97
2022-09-26T21:36:26.559Z,9.35
2022-09-26T21:38:55.576Z,8.35
2022-09-26T21:41:23.559Z,7.28
2022-09-26T21:43:58.787Z,6.88
2022-09-26T21:46:25.862Z,7.30
2022-09-26T21:48:53.270Z,8.98
2022-09-26T21:51:22.367Z,7.75
2022-09-26T21:53:56.447Z,6.97
2022-09-26T21:56:28.918Z,9.98
2022-09-26T21:58:56.507Z,11.15
2022-09-26T22:01:23.415Z,9.85
2022-09-26T22:03:49.974Z,8.52
2022-09-26T22:06:16.487Z,8.10
2022-09-26T22:08:43.321Z,8.18
2022-09-26T22:11:10.020Z,6.97
2022-09-26T22:13:37.691Z,6.72
2022-09-26T22:16:06.519Z,6.63
2022-09-26T22:18:34.508Z,6.80
2022-09-26T22:21:04.734Z,7.75
2022-09-26T22:23:35.080Z,5.68
2022-09-26T22:26:02.135Z,4.25
2022-09-26T22:28:29.220Z,5.03
2022-09-26T22:30:56.376Z,5.50
2022-09-26T22:33:23.147Z,4.55
2022-09-26T22:35:50.420Z,5.55
2022-09-26T22:38:18.247Z,4.70
2022-09-26T22:40:45.962Z,4.65
2022-09-26T22:43:12.757Z,4.75
2022-09-26T22:45:41.625Z,4.88
2022-09-26T22:48:08.169Z,5.43
2022-09-26T22:50:34.634Z,4.03
2022-09-26T22:53:01.331Z,4.60
2022-09-26T22:55:27.902Z,6.18
2022-09-26T22:57:54.347Z,4.68
2022-09-26T23:00:20.838Z,4.80
2022-09-26T23:02:47.360Z,5.35
2022-09-26T23:05:13.970Z,4.13
2022-09-26T23:07:40.409Z,4.03
2022-09-26T23:10:07.547Z,4.38
2022-09-26T23:12:34.024Z,5.57
2022-09-26T23:15:00.750Z,6.13
2022-09-26T23:17:27.365Z,4.63
2022-09-26T23:19:53.847Z,4.20
2022-09-26T23:22:20.345Z,5.43
2022-09-26T23:24:46.831Z,5.18
2022-09-26T23:27:13.338Z,3.42
2022-09-26T23:29:41.262Z,3.55
2022-09-26T23:32:07.721Z,3.40
2022-09-26T23:34:34.161Z,4.95
2022-09-26T23:37:00.599Z,3.22
2022-09-26T23:39:27.087Z,3.10
2022-09-26T23:41:53.843Z,3.75
2022-09-26T23:44:20.383Z,3.38
2022-09-26T23:46:46.825Z,5.10
2022-09-26T23:49:13.381Z,3.90
2022-09-26T23:51:39.899Z,6.47
2022-09-26T23:54:06.718Z,3.85
2022-09-26T23:56:33.160Z,4.55
2022-09-26T23:58:59.603Z,5.20
